sensor_id;sensor_type;location;lat;lon;timestamp;pressure;altitude;pressure_sealevel;temperature;humidity
66880;BME280;53789;51.392;10.234;2023-04-01T00:00:05;96329.03;;;8.32;81.94
66880;BME280;53789;51.392;10.234;2023-04-01T00:00:27;96317.28;;;8.32;82.23
66880;BME280;53789;51.392;10.234;2023-04-01T00:00:48;96325.50;;;8.32;82.73
66880;BME280;53789;51.392;10.234;2023-04-01T00:01:12;96321.97;;;8.31;81.94
66880;BME280;53789;51.392;10.234;2023-04-01T00:01:32;96320.34;;;8.30;82.17
66880;BME280;53789;51.392;10.234;2023-04-01T00:01:53;96312.13;;;8.30;83.00
66880;BME280;53789;51.392;10.234;2023-04-01T00:02:13;96312.94;;;8.31;82.65
66880;BME280;53789;51.392;10.234;2023-04-01T00:02:33;96312.94;;;8.31;82.38
66880;BME280;53789;51.392;10.234;2023-04-01T00:02:54;96312.13;;;8.30;82.32
66880;BME280;53789;51.392;10.234;2023-04-01T00:03:14;96317.63;;;8.30;81.56
66880;BME280;53789;51.392;10.234;2023-04-01T00:03:34;96318.41;;;8.31;81.77
66880;BME280;53789;51.392;10.234;2023-04-01T00:03:55;96319.22;;;8.31;82.73
66880;BME280;53789;51.392;10.234;2023-04-01T00:04:15;96318.41;;;8.31;81.98
66880;BME280;53789;51.392;10.234;2023-04-01T00:04:35;96317.28;;;8.32;81.95
66880;BME280;53789;51.392;10.234;2023-04-01T00:04:56;96320.00;;;8.32;82.60
66880;BME280;53789;51.392;10.234;2023-04-01T00:05:16;96311.00;;;8.31;82.73
66880;BME280;53789;51.392;10.234;2023-04-01T00:05:36;96321.97;;;8.31;82.14
66880;BME280;53789;51.392;10.234;2023-04-01T00:05:58;96326.28;;;8.32;82.24
66880;BME280;53789;51.392;10.234;2023-04-01T00:06:19;96321.13;;;8.31;81.85
66880;BME280;53789;51.392;10.234;2023-04-01T00:06:39;96310.53;;;8.29;81.75
66880;BME280;53789;51.392;10.234;2023-04-01T00:06:59;96316.81;;;8.30;82.04
66880;BME280;53789;51.392;10.234;2023-04-01T00:07:20;96317.16;;;8.28;82.23
66880;BME280;53789;51.392;10.234;2023-04-01T00:07:40;96313.25;;;8.29;82.08
66880;BME280;53789;51.392;10.234;2023-04-01T00:08:00;96313.25;;;8.29;81.76
66880;BME280;53789;51.392;10.234;2023-04-01T00:08:21;96312.47;;;8.29;82.55
66880;BME280;53789;51.392;10.234;2023-04-01T00:08:41;96316.81;;;8.30;82.80
66880;BME280;53789;51.392;10.234;2023-04-01T00:09:01;96316.00;;;8.29;81.86
66880;BME280;53789;51.392;10.234;2023-04-01T00:09:22;96309.72;;;8.29;81.60
66880;BME280;53789;51.392;10.234;2023-04-01T00:09:42;96314.44;;;8.28;82.21
66880;BME280;53789;51.392;10.234;2023-04-01T00:10:05;96312.13;;;8.30;82.97
66880;BME280;53789;51.392;10.234;2023-04-01T00:10:25;96314.44;;;8.28;82.30
66880;BME280;53789;51.392;10.234;2023-04-01T00:10:45;96316.81;;;8.30;82.99
66880;BME280;53789;51.392;10.234;2023-04-01T00:11:06;96313.25;;;8.29;83.41
66880;BME280;53789;51.392;10.234;2023-04-01T00:11:26;96308.59;;;8.30;83.23
66880;BME280;53789;51.392;10.234;2023-04-01T00:11:47;96310.53;;;8.29;82.58
66880;BME280;53789;51.392;10.234;2023-04-01T00:12:07;96312.81;;;8.27;82.48
66880;BME280;53789;51.392;10.234;2023-04-01T00:12:28;96312.81;;;8.27;81.93
66880;BME280;53789;51.392;10.234;2023-04-01T00:12:48;96312.81;;;8.27;81.89
66880;BME280;53789;51.392;10.234;2023-04-01T00:13:09;96303.00;;;8.26;82.44
66880;BME280;53789;51.392;10.234;2023-04-01T00:13:29;96316.22;;;8.24;81.79
66880;BME280;53789;51.392;10.234;2023-04-01T00:13:50;96315.09;;;8.25;82.08
66880;BME280;53789;51.392;10.234;2023-04-01T00:14:11;96311.22;;;8.26;82.52
66880;BME280;53789;51.392;10.234;2023-04-01T00:14:31;96305.38;;;8.28;82.48
66880;BME280;53789;51.392;10.234;2023-04-01T00:14:51;96306.88;;;8.25;82.81
66880;BME280;53789;51.392;10.234;2023-04-01T00:15:12;96310.75;;;8.24;82.79
66880;BME280;53789;51.392;10.234;2023-04-01T00:15:33;96301.41;;;8.25;81.44
66880;BME280;53789;51.392;10.234;2023-04-01T00:15:55;96318.63;;;8.26;82.65
66880;BME280;53789;51.392;10.234;2023-04-01T00:16:15;96307.69;;;8.26;82.54
66880;BME280;53789;51.392;10.234;2023-04-01T00:16:36;96304.94;;;8.26;82.63
66880;BME280;53789;51.392;10.234;2023-04-01T00:16:57;96306.53;;;8.27;82.79
66880;BME280;53789;51.392;10.234;2023-04-01T00:17:17;96306.53;;;8.27;82.57
66880;BME280;53789;51.392;10.234;2023-04-01T00:17:38;96309.28;;;8.27;81.81
66880;BME280;53789;51.392;10.234;2023-04-01T00:17:58;96306.53;;;8.27;81.49
66880;BME280;53789;51.392;10.234;2023-04-01T00:18:18;96309.28;;;8.27;82.07
66880;BME280;53789;51.392;10.234;2023-04-01T00:18:39;96300.25;;;8.26;81.92
66880;BME280;53789;51.392;10.234;2023-04-01T00:18:59;96313.16;;;8.26;81.56
66880;BME280;53789;51.392;10.234;2023-04-01T00:19:19;96298.66;;;8.25;81.67
66880;BME280;53789;51.392;10.234;2023-04-01T00:19:40;96297.06;;;8.24;81.95
66880;BME280;53789;51.392;10.234;2023-04-01T00:20:00;96305.28;;;8.24;81.37
66880;BME280;53789;51.392;10.234;2023-04-01T00:20:21;96305.28;;;8.24;81.75
66880;BME280;53789;51.392;10.234;2023-04-01T00:20:50;96299.66;;;8.21;82.25
66880;BME280;53789;51.392;10.234;2023-04-01T00:21:10;96301.16;;;8.18;82.09
66880;BME280;53789;51.392;10.234;2023-04-01T00:21:30;96298.41;;;8.18;82.03
66880;BME280;53789;51.392;10.234;2023-04-01T00:21:51;96303.91;;;8.18;82.25
66880;BME280;53789;51.392;10.234;2023-04-01T00:22:11;96305.03;;;8.17;82.72
66880;BME280;53789;51.392;10.234;2023-04-01T00:22:32;96307.31;;;8.15;81.71
66880;BME280;53789;51.392;10.234;2023-04-01T00:22:52;96310.06;;;8.15;82.09
66880;BME280;53789;51.392;10.234;2023-04-01T00:23:13;96303.75;;;8.14;82.97
66880;BME280;53789;51.392;10.234;2023-04-01T00:23:34;96304.09;;;8.13;82.70
66880;BME280;53789;51.392;10.234;2023-04-01T00:23:54;96309.56;;;8.13;82.23
66880;BME280;53789;51.392;10.234;2023-04-01T00:24:14;96304.78;;;8.10;82.25
66880;BME280;53789;51.392;10.234;2023-04-01T00:24:35;96302.84;;;8.10;82.77
66880;BME280;53789;51.392;10.234;2023-04-01T00:24:55;96302.84;;;8.10;82.66
66880;BME280;53789;51.392;10.234;2023-04-01T00:25:15;96298.50;;;8.09;82.41
66880;BME280;53789;51.392;10.234;2023-04-01T00:25:36;96298.50;;;8.09;83.19
66880;BME280;53789;51.392;10.234;2023-04-01T00:25:59;96298.50;;;8.09;83.44
66880;BME280;53789;51.392;10.234;2023-04-01T00:26:21;96303.97;;;8.09;82.75
66880;BME280;53789;51.392;10.234;2023-04-01T00:26:41;96294.94;;;8.09;83.40
66880;BME280;53789;51.392;10.234;2023-04-01T00:27:01;96303.16;;;8.09;82.16
66880;BME280;53789;51.392;10.234;2023-04-01T00:27:22;96305.91;;;8.09;82.67
66880;BME280;53789;51.392;10.234;2023-04-01T00:27:42;96308.63;;;8.09;83.21
66880;BME280;53789;51.392;10.234;2023-04-01T00:28:03;96300.75;;;8.07;83.47
66880;BME280;53789;51.392;10.234;2023-04-01T00:28:23;96310.59;;;8.08;83.03
66880;BME280;53789;51.392;10.234;2023-04-01T00:28:43;96300.75;;;8.07;83.67
66880;BME280;53789;51.392;10.234;2023-04-01T00:29:03;96302.38;;;8.08;83.41
66880;BME280;53789;51.392;10.234;2023-04-01T00:29:24;96306.25;;;8.07;83.62
66880;BME280;53789;51.392;10.234;2023-04-01T00:29:45;96305.91;;;8.09;83.81
66880;BME280;53789;51.392;10.234;2023-04-01T00:30:07;96307.50;;;8.10;83.08
66880;BME280;53789;51.392;10.234;2023-04-01T00:30:27;96297.22;;;8.07;83.62
66880;BME280;53789;51.392;10.234;2023-04-01T00:30:48;96294.50;;;8.07;83.56
66880;BME280;53789;51.392;10.234;2023-04-01T00:31:10;96301.59;;;8.08;83.34
66880;BME280;53789;51.392;10.234;2023-04-01T00:31:30;96297.22;;;8.07;83.60
66880;BME280;53789;51.392;10.234;2023-04-01T00:31:50;96314.78;;;8.06;83.54
66880;BME280;53789;51.392;10.234;2023-04-01T00:32:11;96304.66;;;8.06;83.25
66880;BME280;53789;51.392;10.234;2023-04-01T00:32:32;96304.66;;;8.06;84.02
66880;BME280;53789;51.392;10.234;2023-04-01T00:32:53;96298.84;;;8.08;83.77
66880;BME280;53789;51.392;10.234;2023-04-01T00:33:14;96299.19;;;8.06;83.82
66880;BME280;53789;51.392;10.234;2023-04-01T00:33:34;96298.03;;;8.07;83.67
66880;BME280;53789;51.392;10.234;2023-04-01T00:33:55;96299.19;;;8.06;83.75
66880;BME280;53789;51.392;10.234;2023-04-01T00:34:15;96306.25;;;8.07;84.35
66880;BME280;53789;51.392;10.234;2023-04-01T00:34:35;96303.84;;;8.06;84.06
66880;BME280;53789;51.392;10.234;2023-04-01T00:34:56;96299.53;;;8.05;84.16
66880;BME280;53789;51.392;10.234;2023-04-01T00:35:16;96306.56;;;8.06;84.34
66880;BME280;53789;51.392;10.234;2023-04-01T00:35:36;96302.25;;;8.05;83.90
66880;BME280;53789;51.392;10.234;2023-04-01T00:36:23;96302.25;;;8.05;84.05
66880;BME280;53789;51.392;10.234;2023-04-01T00:36:43;96301.09;;;8.06;83.49
66880;BME280;53789;51.392;10.234;2023-04-01T00:37:03;96301.44;;;8.04;84.14
66880;BME280;53789;51.392;10.234;2023-04-01T00:37:24;96305.66;;;8.02;84.16
66880;BME280;53789;51.392;10.234;2023-04-01T00:37:44;96296.31;;;8.03;83.86
66880;BME280;53789;51.392;10.234;2023-04-01T00:38:05;96294.72;;;8.02;83.58
66880;BME280;53789;51.392;10.234;2023-04-01T00:38:25;96296.63;;;8.01;84.54
66880;BME280;53789;51.392;10.234;2023-04-01T00:38:46;96303.72;;;8.02;84.35
66880;BME280;53789;51.392;10.234;2023-04-01T00:39:06;96302.94;;;8.02;84.23
66880;BME280;53789;51.392;10.234;2023-04-01T00:39:30;96306.00;;;8.00;84.33
66880;BME280;53789;51.392;10.234;2023-04-01T00:39:50;96302.78;;;7.98;84.05
66880;BME280;53789;51.392;10.234;2023-04-01T00:40:45;96300.06;;;7.98;84.77
66880;BME280;53789;51.392;10.234;2023-04-01T00:41:06;96294.91;;;7.96;84.36
66880;BME280;53789;51.392;10.234;2023-04-01T00:41:26;96291.06;;;7.98;85.02
66880;BME280;53789;51.392;10.234;2023-04-01T00:41:47;96300.88;;;7.99;84.54
66880;BME280;53789;51.392;10.234;2023-04-01T00:42:09;96301.19;;;7.97;84.33
66880;BME280;53789;51.392;10.234;2023-04-01T00:42:29;96301.19;;;7.97;84.74
66880;BME280;53789;51.392;10.234;2023-04-01T00:42:50;96302.00;;;7.98;84.92
66880;BME280;53789;51.392;10.234;2023-04-01T00:43:18;96305.88;;;7.96;84.13
66880;BME280;53789;51.392;10.234;2023-04-01T00:43:40;96298.44;;;7.97;85.29
66880;BME280;53789;51.392;10.234;2023-04-01T00:44:25;96295.25;;;7.95;84.71
66880;BME280;53789;51.392;10.234;2023-04-01T00:44:54;96304.25;;;7.95;84.27
66880;BME280;53789;51.392;10.234;2023-04-01T00:45:32;96303.47;;;7.95;84.49
66880;BME280;53789;51.392;10.234;2023-04-01T00:45:52;96297.19;;;7.94;84.16
66880;BME280;53789;51.392;10.234;2023-04-01T00:46:13;96301.06;;;7.93;84.90
66880;BME280;53789;51.392;10.234;2023-04-01T00:46:34;96299.13;;;7.94;84.11
66880;BME280;53789;51.392;10.234;2023-04-01T00:46:54;96287.72;;;7.92;84.74
66880;BME280;53789;51.392;10.234;2023-04-01T00:47:15;96295.59;;;7.93;85.10
66880;BME280;53789;51.392;10.234;2023-04-01T00:47:36;96301.06;;;7.93;84.30
66880;BME280;53789;51.392;10.234;2023-04-01T00:48:00;96301.84;;;7.94;84.95
66880;BME280;53789;51.392;10.234;2023-04-01T00:48:29;96297.06;;;7.91;84.85
66880;BME280;53789;51.392;10.234;2023-04-01T00:48:54;96298.22;;;7.90;85.25
66880;BME280;53789;51.392;10.234;2023-04-01T00:49:18;96296.28;;;7.90;84.34
66880;BME280;53789;51.392;10.234;2023-04-01T00:49:44;96300.94;;;7.90;85.20
66880;BME280;53789;51.392;10.234;2023-04-01T00:50:06;96293.53;;;7.90;85.65
66880;BME280;53789;51.392;10.234;2023-04-01T00:50:29;96294.31;;;7.91;84.92
66880;BME280;53789;51.392;10.234;2023-04-01T00:51:02;96299.78;;;7.91;84.58
66880;BME280;53789;51.392;10.234;2023-04-01T00:51:27;96297.88;;;7.91;84.77
66880;BME280;53789;51.392;10.234;2023-04-01T00:51:53;96299.47;;;7.92;85.42
66880;BME280;53789;51.392;10.234;2023-04-01T00:52:18;96295.94;;;7.92;85.57
66880;BME280;53789;51.392;10.234;2023-04-01T00:52:40;96299.47;;;7.92;85.13
66880;BME280;53789;51.392;10.234;2023-04-01T00:53:02;96299.47;;;7.92;84.89
66880;BME280;53789;51.392;10.234;2023-04-01T00:53:24;96293.97;;;7.92;85.30
66880;BME280;53789;51.392;10.234;2023-04-01T00:53:48;96294.31;;;7.91;84.91
66880;BME280;53789;51.392;10.234;2023-04-01T00:54:11;96301.16;;;7.85;84.71
66880;BME280;53789;51.392;10.234;2023-04-01T00:54:34;96298.41;;;7.85;83.92
66880;BME280;53789;51.392;10.234;2023-04-01T00:55:00;96294.88;;;7.84;84.50
66880;BME280;53789;51.392;10.234;2023-04-01T00:55:23;96301.94;;;7.85;84.71
66880;BME280;53789;51.392;10.234;2023-04-01T00:55:54;96305.50;;;7.86;84.62
66880;BME280;53789;51.392;10.234;2023-04-01T00:56:19;96301.63;;;7.87;85.54
66880;BME280;53789;51.392;10.234;2023-04-01T00:57:08;96301.28;;;7.88;84.93
66880;BME280;53789;51.392;10.234;2023-04-01T00:57:37;96298.88;;;7.87;83.95
66880;BME280;53789;51.392;10.234;2023-04-01T00:58:02;96293.41;;;7.87;84.93
66880;BME280;53789;51.392;10.234;2023-04-01T00:58:29;96299.69;;;7.87;85.01
66880;BME280;53789;51.392;10.234;2023-04-01T00:58:57;96300.47;;;7.88;84.29
66880;BME280;53789;51.392;10.234;2023-04-01T00:59:25;96298.88;;;7.87;85.04
66880;BME280;53789;51.392;10.234;2023-04-01T00:59:50;96296.94;;;7.87;84.52
66880;BME280;53789;51.392;10.234;2023-04-01T01:00:12;96295.81;;;7.88;84.76
66880;BME280;53789;51.392;10.234;2023-04-01T01:00:36;96295.00;;;7.88;84.34
66880;BME280;53789;51.392;10.234;2023-04-01T01:00:59;96293.06;;;7.88;85.61
66880;BME280;53789;51.392;10.234;2023-04-01T01:01:22;96293.88;;;7.89;84.96
66880;BME280;53789;51.392;10.234;2023-04-01T01:01:44;96299.00;;;7.90;84.50
66880;BME280;53789;51.392;10.234;2023-04-01T01:02:08;96297.88;;;7.91;85.20
66880;BME280;53789;51.392;10.234;2023-04-01T01:02:32;96296.38;;;7.94;85.38
66880;BME280;53789;51.392;10.234;2023-04-01T01:02:53;96308.16;;;7.94;85.09
66880;BME280;53789;51.392;10.234;2023-04-01T01:03:13;96303.47;;;7.95;84.58
66880;BME280;53789;51.392;10.234;2023-04-01T01:03:35;96297.66;;;7.96;84.45
66880;BME280;53789;51.392;10.234;2023-04-01T01:03:56;96305.06;;;7.96;85.50
66880;BME280;53789;51.392;10.234;2023-04-01T01:04:22;96302.34;;;7.96;85.11
66880;BME280;53789;51.392;10.234;2023-04-01T01:04:44;96302.34;;;7.96;85.29
66880;BME280;53789;51.392;10.234;2023-04-01T01:05:04;96299.25;;;7.98;85.21
66880;BME280;53789;51.392;10.234;2023-04-01T01:05:52;96300.38;;;7.96;85.19
66880;BME280;53789;51.392;10.234;2023-04-01T01:06:23;96309.41;;;7.97;84.61
66880;BME280;53789;51.392;10.234;2023-04-01T01:08:03;96295.72;;;7.97;83.61
66880;BME280;53789;51.392;10.234;2023-04-01T01:09:37;96305.53;;;7.98;83.79
66880;BME280;53789;51.392;10.234;2023-04-01T01:10:17;96289.44;;;7.96;83.90
66880;BME280;53789;51.392;10.234;2023-04-01T01:10:39;96294.91;;;7.96;84.50
66880;BME280;53789;51.392;10.234;2023-04-01T01:11:01;96303.63;;;7.99;84.45
66880;BME280;53789;51.392;10.234;2023-04-01T01:11:31;96294.91;;;7.96;83.81
66880;BME280;53789;51.392;10.234;2023-04-01T01:12:52;96302.34;;;7.96;84.83
66880;BME280;53789;51.392;10.234;2023-04-01T01:13:03;96296.03;;;7.95;84.21
66880;BME280;53789;51.392;10.234;2023-04-01T01:14:02;96296.72;;;7.92;84.08
66880;BME280;53789;51.392;10.234;2023-04-01T01:14:51;96305.75;;;7.93;84.54
66880;BME280;53789;51.392;10.234;2023-04-01T01:16:16;96291.25;;;7.92;84.20
66880;BME280;53789;51.392;10.234;2023-04-01T01:16:45;96298.00;;;7.95;83.57
66880;BME280;53789;51.392;10.234;2023-04-01T01:18:00;96295.59;;;7.93;83.75
66880;BME280;53789;51.392;10.234;2023-04-01T01:21:11;96294.88;;;7.84;85.01
66880;BME280;53789;51.392;10.234;2023-04-01T01:27:12;96306.84;;;7.79;84.05
66880;BME280;53789;51.392;10.234;2023-04-01T01:27:39;96295.88;;;7.79;84.83
66880;BME280;53789;51.392;10.234;2023-04-01T01:30:30;96296.34;;;7.82;85.08
66880;BME280;53789;51.392;10.234;2023-04-01T01:32:59;96302.28;;;7.84;84.98
66880;BME280;53789;51.392;10.234;2023-04-01T01:33:42;96301.94;;;7.85;85.03
66880;BME280;53789;51.392;10.234;2023-04-01T01:35:27;96302.75;;;7.86;83.96
66880;BME280;53789;51.392;10.234;2023-04-01T01:35:57;96303.09;;;7.84;84.27
66880;BME280;53789;51.392;10.234;2023-04-01T01:36:21;96302.75;;;7.86;84.25
66880;BME280;53789;51.392;10.234;2023-04-01T01:36:45;96305.16;;;7.87;84.86
66880;BME280;53789;51.392;10.234;2023-04-01T01:37:13;96293.41;;;7.87;84.75
66880;BME280;53789;51.392;10.234;2023-04-01T01:37:37;96298.88;;;7.87;84.88
66880;BME280;53789;51.392;10.234;2023-04-01T01:38:21;96293.28;;;7.83;84.45
66880;BME280;53789;51.392;10.234;2023-04-01T01:38:44;96301.47;;;7.83;84.10
66880;BME280;53789;51.392;10.234;2023-04-01T01:39:08;96294.06;;;7.84;85.20
66880;BME280;53789;51.392;10.234;2023-04-01T01:39:33;96309.69;;;7.83;84.00
66880;BME280;53789;51.392;10.234;2023-04-01T01:39:58;96298.75;;;7.83;84.73
66880;BME280;53789;51.392;10.234;2023-04-01T01:40:22;96297.97;;;7.83;85.00
66880;BME280;53789;51.392;10.234;2023-04-01T01:40:49;96290.53;;;7.83;85.26
66880;BME280;53789;51.392;10.234;2023-04-01T01:41:13;96299.09;;;7.82;84.72
66880;BME280;53789;51.392;10.234;2023-04-01T01:41:38;96291.66;;;7.82;84.47
66880;BME280;53789;51.392;10.234;2023-04-01T01:42:04;96299.53;;;7.84;84.91
66880;BME280;53789;51.392;10.234;2023-04-01T01:42:28;96293.28;;;7.83;84.78
66880;BME280;53789;51.392;10.234;2023-04-01T01:42:55;96307.75;;;7.84;84.96
66880;BME280;53789;51.392;10.234;2023-04-01T01:43:22;96299.09;;;7.82;85.30
66880;BME280;53789;51.392;10.234;2023-04-01T01:43:47;96304.56;;;7.82;84.61
66880;BME280;53789;51.392;10.234;2023-04-01T01:44:13;96298.75;;;7.83;84.95
66880;BME280;53789;51.392;10.234;2023-04-01T01:44:37;96305.00;;;7.84;85.67
66880;BME280;53789;51.392;10.234;2023-04-01T01:45:01;96297.63;;;7.84;85.33
66880;BME280;53789;51.392;10.234;2023-04-01T01:45:26;96294.53;;;7.86;84.69
66880;BME280;53789;51.392;10.234;2023-04-01T01:45:52;96292.16;;;7.84;85.14
66880;BME280;53789;51.392;10.234;2023-04-01T01:46:19;96291.00;;;7.85;85.39
66880;BME280;53789;51.392;10.234;2023-04-01T01:46:42;96296.47;;;7.85;85.86
66880;BME280;53789;51.392;10.234;2023-04-01T01:47:04;96297.63;;;7.84;84.44
66880;BME280;53789;51.392;10.234;2023-04-01T01:47:27;96294.41;;;7.82;85.40
66880;BME280;53789;51.392;10.234;2023-04-01T01:47:51;96295.56;;;7.81;85.24
66880;BME280;53789;51.392;10.234;2023-04-01T01:48:12;96294.72;;;7.81;84.25
66880;BME280;53789;51.392;10.234;2023-04-01T01:48:34;96297.81;;;7.79;85.45
66880;BME280;53789;51.392;10.234;2023-04-01T01:48:57;96293.50;;;7.78;84.78
66880;BME280;53789;51.392;10.234;2023-04-01T01:49:20;96297.81;;;7.79;84.27
66880;BME280;53789;51.392;10.234;2023-04-01T01:49:43;96298.63;;;7.79;85.55
66880;BME280;53789;51.392;10.234;2023-04-01T01:50:06;96291.09;;;7.76;85.52
66880;BME280;53789;51.392;10.234;2023-04-01T01:50:28;96296.56;;;7.76;84.36
66880;BME280;53789;51.392;10.234;2023-04-01T01:50:50;96303.94;;;7.76;85.39
66880;BME280;53789;51.392;10.234;2023-04-01T01:51:11;96305.91;;;7.75;85.01
66880;BME280;53789;51.392;10.234;2023-04-01T01:51:32;96297.22;;;7.73;84.56
66880;BME280;53789;51.392;10.234;2023-04-01T01:51:52;96300.75;;;7.74;85.19
66880;BME280;53789;51.392;10.234;2023-04-01T01:52:13;96304.28;;;7.74;85.37
66880;BME280;53789;51.392;10.234;2023-04-01T01:52:33;96299.16;;;7.73;85.75
66880;BME280;53789;51.392;10.234;2023-04-01T01:53:11;96304.19;;;7.71;85.20
66880;BME280;53789;51.392;10.234;2023-04-01T01:53:32;96298.69;;;7.71;85.12
66880;BME280;53789;51.392;10.234;2023-04-01T01:53:52;96294.34;;;7.70;84.89
66880;BME280;53789;51.392;10.234;2023-04-01T01:54:14;96297.09;;;7.70;84.95
66880;BME280;53789;51.392;10.234;2023-04-01T01:54:34;96287.75;;;7.71;85.14
66880;BME280;53789;51.392;10.234;2023-04-01T01:54:56;96293.22;;;7.71;85.30
66880;BME280;53789;51.392;10.234;2023-04-01T01:55:30;96297.88;;;7.70;85.35
66880;BME280;53789;51.392;10.234;2023-04-01T01:55:51;96304.19;;;7.71;85.08
66880;BME280;53789;51.392;10.234;2023-04-01T01:56:12;96303.34;;;7.70;85.58
66880;BME280;53789;51.392;10.234;2023-04-01T01:56:34;96294.81;;;7.72;85.39
66880;BME280;53789;51.392;10.234;2023-04-01T01:57:06;96298.69;;;7.71;84.98
66880;BME280;53789;51.392;10.234;2023-04-01T01:57:34;96293.22;;;7.71;85.25
66880;BME280;53789;51.392;10.234;2023-04-01T01:58:47;96302.69;;;7.73;85.18
66880;BME280;53789;51.392;10.234;2023-04-01T01:59:11;96297.53;;;7.72;85.57
66880;BME280;53789;51.392;10.234;2023-04-01T01:59:38;96306.91;;;7.71;85.88
66880;BME280;53789;51.392;10.234;2023-04-01T02:00:07;96298.69;;;7.71;85.86
66880;BME280;53789;51.392;10.234;2023-04-01T02:00:28;96294.81;;;7.72;85.85
66880;BME280;53789;51.392;10.234;2023-04-01T02:01:04;96299.94;;;7.73;84.81
66880;BME280;53789;51.392;10.234;2023-04-01T02:01:30;96298.03;;;7.74;85.29
66880;BME280;53789;51.392;10.234;2023-04-01T02:01:55;96301.22;;;7.76;85.78
66880;BME280;53789;51.392;10.234;2023-04-01T02:02:17;96301.22;;;7.76;85.64
66880;BME280;53789;51.392;10.234;2023-04-01T02:02:44;96307.50;;;7.76;85.51
66880;BME280;53789;51.392;10.234;2023-04-01T02:03:05;96301.22;;;7.76;85.34
66880;BME280;53789;51.392;10.234;2023-04-01T02:03:29;96303.50;;;7.74;85.14
66880;BME280;53789;51.392;10.234;2023-04-01T02:03:52;96305.91;;;7.75;85.12
66880;BME280;53789;51.392;10.234;2023-04-01T02:04:14;96303.94;;;7.76;86.11
66880;BME280;53789;51.392;10.234;2023-04-01T02:04:39;96302.03;;;7.76;84.89
66880;BME280;53789;51.392;10.234;2023-04-01T02:05:02;96305.13;;;7.75;84.98
66880;BME280;53789;51.392;10.234;2023-04-01T02:05:27;96305.13;;;7.75;85.47
66880;BME280;53789;51.392;10.234;2023-04-01T02:05:52;96301.88;;;7.73;85.20
66880;BME280;53789;51.392;10.234;2023-04-01T02:06:17;96304.63;;;7.73;86.01
66880;BME280;53789;51.392;10.234;2023-04-01T02:06:45;96299.81;;;7.70;85.37
66880;BME280;53789;51.392;10.234;2023-04-01T02:07:14;96296.31;;;7.69;85.57
66880;BME280;53789;51.392;10.234;2023-04-01T02:07:39;96294.69;;;7.68;85.66
66880;BME280;53789;51.392;10.234;2023-04-01T02:08:13;96299.72;;;7.66;85.25
66880;BME280;53789;51.392;10.234;2023-04-01T02:08:47;96297.75;;;7.67;86.02
66880;BME280;53789;51.392;10.234;2023-04-01T02:09:10;96303.25;;;7.67;85.75
66880;BME280;53789;51.392;10.234;2023-04-01T02:09:31;96302.44;;;7.66;85.81
66880;BME280;53789;51.392;10.234;2023-04-01T02:09:52;96301.28;;;7.67;86.13
66880;BME280;53789;51.392;10.234;2023-04-01T02:10:13;96301.63;;;7.66;86.02
66880;BME280;53789;51.392;10.234;2023-04-01T02:10:38;96299.72;;;7.66;86.14
66880;BME280;53789;51.392;10.234;2023-04-01T02:11:05;96302.78;;;7.65;86.54
66880;BME280;53789;51.392;10.234;2023-04-01T02:11:38;96300.50;;;7.67;85.67
66880;BME280;53789;51.392;10.234;2023-04-01T02:12:07;96294.56;;;7.65;85.82
66880;BME280;53789;51.392;10.234;2023-04-01T02:12:28;96295.38;;;7.65;86.12
66880;BME280;53789;51.392;10.234;2023-04-01T02:12:53;96291.84;;;7.65;86.19
66880;BME280;53789;51.392;10.234;2023-04-01T02:13:23;96303.13;;;7.63;85.94
66880;BME280;53789;51.392;10.234;2023-04-01T02:13:52;96297.31;;;7.65;86.47
66880;BME280;53789;51.392;10.234;2023-04-01T02:15:04;96298.09;;;7.65;85.42
66880;BME280;53789;51.392;10.234;2023-04-01T02:15:09;96298.09;;;7.65;86.56
66880;BME280;53789;51.392;10.234;2023-04-01T02:15:41;96303.56;;;7.65;86.46
66880;BME280;53789;51.392;10.234;2023-04-01T02:16:11;96298.88;;;7.66;85.47
66880;BME280;53789;51.392;10.234;2023-04-01T02:16:47;96295.81;;;7.67;85.53
66880;BME280;53789;51.392;10.234;2023-04-01T02:17:20;96299.38;;;7.68;85.51
66880;BME280;53789;51.392;10.234;2023-04-01T02:17:46;96293.91;;;7.68;86.23
66880;BME280;53789;51.392;10.234;2023-04-01T02:18:08;96295.47;;;7.69;86.32
66880;BME280;53789;51.392;10.234;2023-04-01T02:18:30;96295.47;;;7.69;85.78
66880;BME280;53789;51.392;10.234;2023-04-01T02:18:55;96292.75;;;7.69;85.96
66880;BME280;53789;51.392;10.234;2023-04-01T02:19:17;96294.03;;;7.71;85.92
66880;BME280;53789;51.392;10.234;2023-04-01T02:19:48;96293.22;;;7.71;86.38
66880;BME280;53789;51.392;10.234;2023-04-01T02:20:18;96294.81;;;7.72;85.48
66880;BME280;53789;51.392;10.234;2023-04-01T02:20:41;96296.41;;;7.73;85.33
66880;BME280;53789;51.392;10.234;2023-04-01T02:21:05;96303.03;;;7.72;85.54
66880;BME280;53789;51.392;10.234;2023-04-01T02:21:32;96296.41;;;7.73;86.34
66880;BME280;53789;51.392;10.234;2023-04-01T02:21:56;96298.03;;;7.74;85.60
66880;BME280;53789;51.392;10.234;2023-04-01T02:22:25;96293.69;;;7.73;85.16
66880;BME280;53789;51.392;10.234;2023-04-01T02:22:52;96299.81;;;7.70;85.76
66880;BME280;53789;51.392;10.234;2023-04-01T02:23:13;96297.44;;;7.68;85.87
66880;BME280;53789;51.392;10.234;2023-04-01T02:23:36;96296.31;;;7.69;85.41
66880;BME280;53789;51.392;10.234;2023-04-01T02:24:00;96292.75;;;7.69;85.88
66880;BME280;53789;51.392;10.234;2023-04-01T02:24:25;96303.34;;;7.70;85.42
66880;BME280;53789;51.392;10.234;2023-04-01T02:24:50;96298.22;;;7.69;85.17
66880;BME280;53789;51.392;10.234;2023-04-01T02:25:16;96291.97;;;7.68;85.47
66880;BME280;53789;51.392;10.234;2023-04-01T02:25:39;96298.22;;;7.69;85.09
66880;BME280;53789;51.392;10.234;2023-04-01T02:26:03;96299.81;;;7.70;85.04
66880;BME280;53789;51.392;10.234;2023-04-01T02:26:26;96293.56;;;7.69;84.80
66880;BME280;53789;51.392;10.234;2023-04-01T02:26:47;96294.69;;;7.68;85.64
66880;BME280;53789;51.392;10.234;2023-04-01T02:27:10;96303.25;;;7.67;85.25
66880;BME280;53789;51.392;10.234;2023-04-01T02:27:31;96293.41;;;7.66;85.84